createdAt,value
2023-03-14T00:00:20.813Z,12.76
2023-03-14T00:03:13.312Z,12.64
2023-03-14T00:05:45.788Z,12.84
2023-03-14T00:08:19.149Z,12.89
2023-03-14T00:10:53.933Z,12.82
2023-03-14T00:13:26.841Z,12.79
2023-03-14T00:16:03.508Z,12.77
2023-03-14T00:18:38.543Z,12.82
2023-03-14T00:21:13.672Z,12.75
2023-03-14T00:23:46.481Z,12.83
2023-03-14T00:26:21.945Z,12.82
2023-03-14T00:28:57.316Z,12.87
2023-03-14T00:31:29.875Z,12.85
2023-03-14T00:34:04.894Z,12.81
2023-03-14T00:36:38.320Z,12.89
2023-03-14T00:39:11.997Z,12.95
2023-03-14T00:41:44.557Z,12.88
2023-03-14T00:44:20.837Z,12.90
2023-03-14T00:46:53.422Z,12.93
2023-03-14T00:49:25.884Z,12.88
2023-03-14T00:51:58.313Z,12.78
2023-03-14T00:54:31.059Z,12.91
2023-03-14T00:57:04.668Z,12.98
2023-03-14T00:59:37.193Z,12.95
2023-03-14T01:02:09.829Z,12.98
2023-03-14T01:04:44.276Z,12.91
2023-03-14T01:07:17.112Z,12.96
2023-03-14T01:09:49.839Z,12.92
2023-03-14T01:12:24.082Z,12.87
2023-03-14T01:14:56.859Z,12.87
2023-03-14T01:17:30.331Z,12.86
2023-03-14T01:20:05.881Z,12.96
2023-03-14T01:22:39.668Z,12.93
2023-03-14T01:25:15.714Z,12.99
2023-03-14T01:27:49.233Z,12.96
2023-03-14T01:30:23.645Z,12.87
2023-03-14T01:32:56.184Z,12.95
2023-03-14T01:35:28.937Z,12.90
2023-03-14T01:38:01.493Z,12.84
2023-03-14T01:40:35.425Z,13.00
2023-03-14T01:43:18.241Z,12.94
2023-03-14T01:46:41.983Z,12.91
2023-03-14T01:49:23.570Z,12.95
2023-03-14T01:52:09.918Z,12.90
2023-03-14T01:54:45.470Z,12.91
2023-03-14T01:57:21.925Z,12.86
2023-03-14T02:00:00.200Z,12.81
2023-03-14T02:02:36.345Z,12.90
2023-03-14T02:05:11.125Z,12.91
2023-03-14T02:07:49.778Z,12.90
2023-03-14T02:10:29.877Z,12.90
2023-03-14T02:13:05.969Z,12.76
2023-03-14T02:16:05.065Z,12.85
2023-03-14T02:19:05.269Z,12.77
2023-03-14T02:22:04.642Z,12.75
2023-03-14T02:24:51.834Z,12.79
2023-03-14T02:27:24.750Z,12.70
2023-03-14T02:30:01.124Z,12.67
2023-03-14T02:32:38.240Z,12.60
2023-03-14T02:35:16.716Z,12.61
2023-03-14T02:37:54.416Z,12.65
2023-03-14T02:40:27.748Z,12.50
2023-03-14T02:43:00.142Z,12.49
2023-03-14T02:45:47.847Z,12.63
2023-03-14T02:48:27.357Z,12.59
2023-03-14T02:51:02.120Z,12.62
2023-03-14T02:53:40.880Z,12.60
2023-03-14T02:56:16.134Z,12.67
2023-03-14T02:58:50.738Z,12.62
2023-03-14T03:01:30.432Z,12.61
2023-03-14T03:04:03.281Z,12.45
2023-03-14T03:06:35.859Z,12.40
2023-03-14T03:09:08.689Z,12.46
2023-03-14T03:11:42.013Z,12.48
2023-03-14T03:14:16.877Z,12.48
2023-03-14T03:16:49.879Z,12.46
2023-03-14T03:19:22.589Z,12.39
2023-03-14T03:21:55.995Z,12.47
2023-03-14T03:24:29.041Z,12.52
2023-03-14T03:27:01.556Z,12.50
2023-03-14T03:29:34.182Z,12.39
2023-03-14T03:32:07.436Z,12.48
2023-03-14T03:34:39.981Z,12.47
2023-03-14T03:37:12.760Z,12.32
2023-03-14T03:39:47.199Z,12.17
2023-03-14T03:42:21.207Z,12.37
2023-03-14T03:44:53.691Z,12.33
2023-03-14T03:47:26.320Z,12.31
2023-03-14T03:49:59.196Z,12.25
2023-03-14T03:52:34.698Z,12.27
2023-03-14T03:55:07.985Z,12.22
2023-03-14T03:57:40.733Z,12.19
2023-03-14T04:00:15.602Z,12.20
2023-03-14T04:02:46.491Z,12.03
2023-03-14T04:05:21.677Z,11.99
2023-03-14T04:08:03.519Z,12.13
2023-03-14T04:10:38.405Z,12.09
2023-03-14T04:13:25.408Z,12.11
2023-03-14T04:15:59.099Z,11.97
2023-03-14T04:18:34.164Z,11.91
2023-03-14T04:21:07.468Z,12.06
2023-03-14T04:24:00.517Z,11.90
2023-03-14T04:26:37.047Z,11.78
2023-03-14T04:29:12.076Z,11.84
2023-03-14T04:31:44.879Z,11.81
2023-03-14T04:34:18.395Z,11.73
2023-03-14T04:36:56.089Z,11.72
2023-03-14T04:39:37.619Z,11.73
2023-03-14T04:42:23.326Z,11.64
2023-03-14T04:44:56.324Z,11.68
2023-03-14T04:47:33.850Z,11.59
2023-03-14T04:50:09.590Z,11.66
2023-03-14T04:52:42.305Z,11.66
2023-03-14T04:55:15.361Z,11.67
2023-03-14T04:57:48.953Z,11.67
2023-03-14T05:00:26.104Z,11.56
2023-03-14T05:03:09.290Z,11.60
2023-03-14T05:06:01.996Z,11.54
2023-03-14T05:08:40.657Z,11.51
2023-03-14T05:11:40.997Z,11.44
2023-03-14T05:14:34.103Z,11.47
2023-03-14T05:17:28.133Z,11.36
2023-03-14T05:20:19.093Z,11.29
2023-03-14T05:23:00.839Z,11.35
2023-03-14T05:25:57.792Z,11.27
2023-03-14T05:28:54.743Z,11.15
2023-03-14T05:31:42.987Z,11.35
2023-03-14T05:34:27.871Z,11.25
2023-03-14T05:37:19.010Z,11.25
2023-03-14T05:40:27.845Z,11.27
2023-03-14T05:43:25.245Z,11.25
2023-03-14T05:46:28.295Z,11.20
2023-03-14T05:49:14.899Z,11.20
2023-03-14T05:52:06.231Z,11.20
2023-03-14T05:54:57.666Z,11.36
2023-03-14T05:57:55.570Z,11.40
2023-03-14T06:00:53.333Z,11.44
2023-03-14T06:03:36.901Z,11.38
2023-03-14T06:06:10.619Z,11.44
2023-03-14T06:08:43.595Z,11.44
2023-03-14T06:11:17.557Z,11.49
2023-03-14T06:13:54.533Z,11.45
2023-03-14T06:16:27.815Z,11.42
2023-03-14T06:19:00.534Z,11.46
2023-03-14T06:21:35.305Z,11.54
2023-03-14T06:24:08.773Z,11.51
2023-03-14T06:26:53.795Z,11.56
2023-03-14T06:29:27.208Z,11.57
2023-03-14T06:32:00.142Z,11.49
2023-03-14T06:34:33.301Z,11.47
2023-03-14T06:37:06.553Z,11.66
2023-03-14T06:39:39.990Z,11.61
2023-03-14T06:42:25.442Z,11.69
2023-03-14T06:44:58.878Z,11.75
2023-03-14T06:47:32.216Z,11.78
2023-03-14T06:50:08.698Z,11.71
2023-03-14T06:52:54.665Z,11.77
2023-03-14T06:55:29.748Z,11.78
2023-03-14T06:58:02.972Z,11.81
2023-03-14T07:00:37.385Z,11.94
2023-03-14T07:03:12.256Z,12.01
2023-03-14T07:05:45.947Z,11.98
2023-03-14T07:08:18.576Z,11.99
2023-03-14T07:10:51.036Z,11.95
2023-03-14T07:13:23.718Z,11.98
2023-03-14T07:16:01.432Z,12.01
2023-03-14T07:18:34.106Z,11.90
2023-03-14T07:21:11.260Z,12.00
2023-03-14T07:23:43.960Z,12.14
2023-03-14T07:26:18.118Z,12.21
2023-03-14T07:28:54.902Z,12.09
2023-03-14T07:31:28.347Z,12.11
2023-03-14T07:34:01.429Z,12.26
2023-03-14T07:36:37.029Z,12.33
2023-03-14T07:39:09.636Z,12.36
2023-03-14T07:42:03.810Z,12.35
2023-03-14T07:44:39.000Z,12.41
2023-03-14T07:47:12.447Z,12.44
2023-03-14T07:49:44.972Z,12.41
2023-03-14T07:52:17.807Z,12.45
2023-03-14T07:54:51.006Z,12.44
2023-03-14T07:57:24.051Z,12.51
2023-03-14T07:59:57.233Z,12.50
2023-03-14T08:02:30.336Z,12.51
2023-03-14T08:05:03.145Z,12.49
2023-03-14T08:07:36.038Z,12.67
2023-03-14T08:10:11.835Z,12.67
2023-03-14T08:12:44.600Z,12.79
2023-03-14T08:15:17.723Z,12.83
2023-03-14T08:17:52.325Z,12.89
2023-03-14T08:20:24.499Z,12.96
2023-03-14T08:23:00.124Z,12.97
2023-03-14T08:25:33.550Z,13.04
2023-03-14T08:28:06.909Z,13.06
2023-03-14T08:30:40.017Z,13.03
2023-03-14T08:33:13.203Z,13.08
2023-03-14T08:35:46.148Z,13.08
2023-03-14T08:38:19.167Z,13.14
2023-03-14T08:40:57.167Z,13.20
2023-03-14T08:43:30.471Z,13.20
2023-03-14T08:46:04.471Z,13.29
2023-03-14T08:48:37.272Z,13.44
2023-03-14T08:51:11.929Z,13.38
2023-03-14T08:53:43.037Z,13.49
2023-03-14T08:56:16.127Z,13.47
2023-03-14T08:58:49.292Z,13.42
2023-03-14T09:01:25.388Z,13.47
2023-03-14T09:03:58.747Z,13.51
2023-03-14T09:06:31.841Z,13.60
2023-03-14T09:09:04.944Z,13.59
2023-03-14T09:11:37.790Z,13.52
2023-03-14T09:14:10.240Z,13.55
2023-03-14T09:16:42.961Z,13.47
2023-03-14T09:19:15.480Z,13.51
2023-03-14T09:21:47.972Z,13.65
2023-03-14T09:24:20.843Z,13.69
2023-03-14T09:26:53.521Z,13.74
2023-03-14T09:29:26.432Z,13.73
2023-03-14T09:32:00.557Z,13.71
2023-03-14T09:34:34.750Z,13.81
2023-03-14T09:37:09.022Z,13.72
2023-03-14T09:39:41.916Z,13.82
2023-03-14T09:42:19.424Z,13.88
2023-03-14T09:44:59.043Z,13.82
2023-03-14T09:47:32.389Z,13.93
2023-03-14T09:50:07.929Z,13.91
2023-03-14T09:52:45.329Z,13.95
2023-03-14T09:55:22.584Z,13.94
2023-03-14T09:58:02.239Z,14.09
2023-03-14T10:00:35.656Z,14.12
2023-03-14T10:03:26.871Z,14.24
2023-03-14T10:06:00.493Z,14.27
2023-03-14T10:08:33.085Z,14.28
2023-03-14T10:11:05.652Z,14.31
2023-03-14T10:13:49.186Z,14.45
2023-03-14T10:16:30.701Z,14.51
2023-03-14T10:19:13.104Z,14.44
2023-03-14T10:21:52.787Z,14.49
2023-03-14T10:24:30.857Z,14.57
2023-03-14T10:27:06.229Z,14.52
2023-03-14T10:29:59.449Z,14.53
2023-03-14T10:32:41.987Z,14.52
2023-03-14T10:35:30.736Z,14.64
2023-03-14T10:38:07.429Z,14.74
2023-03-14T10:40:43.054Z,14.73
2023-03-14T10:43:21.010Z,14.73
2023-03-14T10:46:00.856Z,14.72
2023-03-14T10:48:38.654Z,14.76
2023-03-14T10:51:13.592Z,14.65
2023-03-14T10:53:48.233Z,14.60
2023-03-14T10:56:26.124Z,14.57
2023-03-14T10:58:59.524Z,14.71
2023-03-14T11:01:43.649Z,14.83
2023-03-14T11:04:28.256Z,14.82
2023-03-14T11:07:07.357Z,14.76
2023-03-14T11:09:44.561Z,14.80
2023-03-14T11:12:39.848Z,14.83
2023-03-14T11:15:21.395Z,14.87
2023-03-14T11:18:11.659Z,14.97
2023-03-14T11:20:51.477Z,15.06
2023-03-14T11:23:26.109Z,15.17
2023-03-14T11:26:03.984Z,15.31
2023-03-14T11:28:41.324Z,15.34
2023-03-14T11:31:21.527Z,15.35
2023-03-14T11:34:03.772Z,15.31
2023-03-14T11:36:41.121Z,15.27
2023-03-14T11:39:17.748Z,15.44
2023-03-14T11:41:54.063Z,15.71
2023-03-14T11:44:32.517Z,15.86
2023-03-14T11:47:09.497Z,16.23
2023-03-14T11:49:46.343Z,16.07
2023-03-14T11:52:23.550Z,16.00
2023-03-14T11:55:04.764Z,15.87
2023-03-14T11:57:37.453Z,15.72
2023-03-14T12:00:19.426Z,15.77
2023-03-14T12:03:01.465Z,15.56
2023-03-14T12:05:54.526Z,15.40
2023-03-14T12:08:44.016Z,15.49
2023-03-14T12:11:21.715Z,15.59
2023-03-14T12:13:55.926Z,15.51
2023-03-14T12:16:41.843Z,15.52
2023-03-14T12:19:34.157Z,15.49
2023-03-14T12:22:25.229Z,15.45
2023-03-14T12:25:03.229Z,15.35
2023-03-14T12:28:06.226Z,15.32
2023-03-14T12:30:40.947Z,15.26
2023-03-14T12:33:28.474Z,15.18
2023-03-14T12:36:22.412Z,15.14
2023-03-14T12:39:06.486Z,15.31
2023-03-14T12:41:46.674Z,15.19
2023-03-14T12:44:50.786Z,15.24
2023-03-14T12:47:59.117Z,15.30
2023-03-14T12:50:36.992Z,15.24
2023-03-14T12:53:35.249Z,15.29
2023-03-14T12:56:19.967Z,15.56
2023-03-14T12:59:03.948Z,15.78
2023-03-14T13:01:37.383Z,15.77
2023-03-14T13:04:14.639Z,15.85
2023-03-14T13:06:55.167Z,15.99
2023-03-14T13:09:57.663Z,16.08
2023-03-14T13:12:41.203Z,16.23
2023-03-14T13:15:29.319Z,16.07
2023-03-14T13:18:05.614Z,16.04
2023-03-14T13:20:40.947Z,15.87
2023-03-14T13:23:25.385Z,15.77
2023-03-14T13:25:58.225Z,15.69
2023-03-14T13:28:32.492Z,15.59
2023-03-14T13:31:07.396Z,15.39
2023-03-14T13:33:42.934Z,15.43
2023-03-14T13:36:15.345Z,15.40
2023-03-14T13:38:57.389Z,15.55
2023-03-14T13:41:30.361Z,15.43
2023-03-14T13:44:09.211Z,15.38
2023-03-14T13:46:42.361Z,15.40
2023-03-14T13:49:23.865Z,15.34
2023-03-14T13:51:56.415Z,15.31
2023-03-14T13:54:30.319Z,15.25
2023-03-14T13:57:07.103Z,15.24
2023-03-14T13:59:39.741Z,15.15
2023-03-14T14:02:18.594Z,15.10
2023-03-14T14:04:51.593Z,15.00
2023-03-14T14:07:24.146Z,14.99
2023-03-14T14:09:57.368Z,14.99
2023-03-14T14:12:33.815Z,15.20
2023-03-14T14:15:10.287Z,15.68
2023-03-14T14:17:46.707Z,15.79
2023-03-14T14:20:26.680Z,15.80
2023-03-14T14:23:03.591Z,15.66
2023-03-14T14:25:36.480Z,15.50
2023-03-14T14:28:25.979Z,15.40
2023-03-14T14:31:07.391Z,15.10
2023-03-14T14:33:47.615Z,14.86
2023-03-14T14:36:27.643Z,14.55
2023-03-14T14:39:02.913Z,14.60
2023-03-14T14:41:37.686Z,14.69
2023-03-14T14:44:14.369Z,14.45
2023-03-14T14:46:48.722Z,14.42
2023-03-14T14:49:23.916Z,14.52
2023-03-14T14:52:05.891Z,14.58
2023-03-14T14:54:44.658Z,14.51
2023-03-14T14:57:25.153Z,14.49
2023-03-14T15:00:02.422Z,14.42
2023-03-14T15:02:45.212Z,14.36
2023-03-14T15:05:21.507Z,14.38
2023-03-14T15:07:54.153Z,14.43
2023-03-14T15:10:27.892Z,14.47
2023-03-14T15:13:03.041Z,14.37
2023-03-14T15:15:38.348Z,14.26
2023-03-14T15:18:17.325Z,14.54
2023-03-14T15:20:50.362Z,14.49
2023-03-14T15:23:23.811Z,14.52
2023-03-14T15:25:56.741Z,14.61
2023-03-14T15:28:31.683Z,14.73
2023-03-14T15:31:04.260Z,14.70
2023-03-14T15:33:36.781Z,14.70
2023-03-14T15:36:17.968Z,14.83
2023-03-14T15:38:50.431Z,14.93
2023-03-14T15:41:23.846Z,14.91
2023-03-14T15:43:56.713Z,14.96
2023-03-14T15:46:31.044Z,14.86
2023-03-14T15:49:04.432Z,15.01
2023-03-14T15:51:38.039Z,15.01
2023-03-14T15:54:10.693Z,14.87
2023-03-14T15:56:43.905Z,14.76
2023-03-14T15:59:16.642Z,14.79
2023-03-14T16:01:50.095Z,14.74
2023-03-14T16:04:22.739Z,14.69
2023-03-14T16:06:55.281Z,14.74
2023-03-14T16:09:28.149Z,14.67
2023-03-14T16:12:00.979Z,14.57
2023-03-14T16:14:33.691Z,14.49
2023-03-14T16:17:11.784Z,14.44
2023-03-14T16:19:44.734Z,14.45
2023-03-14T16:22:17.625Z,14.48
2023-03-14T16:24:50.247Z,14.43
2023-03-14T16:27:22.636Z,14.38
2023-03-14T16:29:55.282Z,14.25
2023-03-14T16:32:28.732Z,14.25
2023-03-14T16:35:01.435Z,14.31
2023-03-14T16:37:35.194Z,14.31
2023-03-14T16:40:13.116Z,14.23
2023-03-14T16:43:13.954Z,14.28
2023-03-14T16:45:39.763Z,14.32
2023-03-14T16:48:12.567Z,14.26
2023-03-14T16:50:45.674Z,14.21
2023-03-14T16:53:18.575Z,14.12
2023-03-14T16:55:52.572Z,14.11
2023-03-14T16:58:25.168Z,14.11
2023-03-14T17:00:58.202Z,14.02
2023-03-14T17:03:30.840Z,13.88
2023-03-14T17:06:04.187Z,13.67
2023-03-14T17:08:37.952Z,13.74
2023-03-14T17:11:11.034Z,13.75
2023-03-14T17:13:43.697Z,13.58
2023-03-14T17:16:16.444Z,13.58
2023-03-14T17:18:49.310Z,13.52
2023-03-14T17:21:22.191Z,13.59
2023-03-14T17:23:55.255Z,13.64
2023-03-14T17:26:28.094Z,13.57
2023-03-14T17:29:00.971Z,13.45
2023-03-14T17:31:33.694Z,13.53
2023-03-14T17:34:06.693Z,13.57
2023-03-14T17:36:39.081Z,13.38
2023-03-14T17:39:11.706Z,13.50
2023-03-14T17:41:44.262Z,13.50
2023-03-14T17:44:16.843Z,13.53
2023-03-14T17:46:49.560Z,13.64
2023-03-14T17:49:23.805Z,13.63
2023-03-14T17:51:56.464Z,13.55
2023-03-14T17:54:29.876Z,13.51
2023-03-14T17:57:02.704Z,13.44
2023-03-14T17:59:35.478Z,13.50
2023-03-14T18:02:08.479Z,13.55
2023-03-14T18:04:41.660Z,13.49
2023-03-14T18:07:14.851Z,13.48
2023-03-14T18:09:47.479Z,13.38
2023-03-14T18:12:20.053Z,13.30
2023-03-14T18:14:52.539Z,13.39
2023-03-14T18:17:25.990Z,13.33
2023-03-14T18:19:58.627Z,13.29
2023-03-14T18:22:31.387Z,13.31
2023-03-14T18:25:05.570Z,13.31
2023-03-14T18:27:38.561Z,13.26
2023-03-14T18:30:14.610Z,13.31
2023-03-14T18:32:47.243Z,13.37
2023-03-14T18:35:19.948Z,13.38
2023-03-14T18:37:52.462Z,13.32
2023-03-14T18:40:25.364Z,13.32
2023-03-14T18:42:59.061Z,13.35
2023-03-14T18:45:33.216Z,13.32
2023-03-14T18:48:06.414Z,13.23
2023-03-14T18:50:40.303Z,13.16
2023-03-14T18:53:13.806Z,13.15
2023-03-14T18:55:46.866Z,13.10
2023-03-14T18:58:23.906Z,13.16
2023-03-14T19:00:59.372Z,13.12
2023-03-14T19:03:34.858Z,13.06
2023-03-14T19:06:10.167Z,12.99
2023-03-14T19:08:43.543Z,13.00
2023-03-14T19:11:16.959Z,13.00
2023-03-14T19:13:49.690Z,13.08
2023-03-14T19:16:24.592Z,13.01
2023-03-14T19:18:58.259Z,13.09
2023-03-14T19:21:32.543Z,13.00
2023-03-14T19:24:06.345Z,12.79
2023-03-14T19:26:39.139Z,12.28
2023-03-14T19:29:11.854Z,11.44
2023-03-14T19:31:44.445Z,11.01
2023-03-14T19:34:16.958Z,10.63
2023-03-14T19:36:49.643Z,10.15
2023-03-14T19:39:22.966Z,9.82
2023-03-14T19:41:57.891Z,9.73
2023-03-14T19:44:28.901Z,9.38
2023-03-14T19:47:01.719Z,9.10
2023-03-14T19:49:34.427Z,8.90
2023-03-14T19:52:07.239Z,8.80
2023-03-14T19:54:42.036Z,8.44
2023-03-14T19:57:15.317Z,8.32
2023-03-14T19:59:47.986Z,7.96
2023-03-14T20:02:45.702Z,7.84
2023-03-14T20:05:19.898Z,7.43
2023-03-14T20:07:52.932Z,7.04
2023-03-14T20:10:25.485Z,6.91
2023-03-14T20:12:59.750Z,6.93
2023-03-14T20:15:32.516Z,6.92
2023-03-14T20:18:05.502Z,6.66
2023-03-14T20:20:40.965Z,6.78
2023-03-14T20:23:14.619Z,6.67
2023-03-14T20:25:53.842Z,6.60
2023-03-14T20:28:27.336Z,6.57
2023-03-14T20:31:00.185Z,6.37
2023-03-14T20:33:37.291Z,6.19
2023-03-14T20:36:10.922Z,6.14
2023-03-14T20:38:43.509Z,6.21
2023-03-14T20:41:16.401Z,6.07
2023-03-14T20:43:48.817Z,5.83
2023-03-14T20:46:21.649Z,5.96
2023-03-14T20:48:54.119Z,5.84
2023-03-14T20:51:26.904Z,5.80
2023-03-14T20:53:59.432Z,5.96
2023-03-14T20:56:33.260Z,6.02
2023-03-14T20:59:07.758Z,5.86
2023-03-14T21:01:40.813Z,5.84
2023-03-14T21:04:13.470Z,5.87
2023-03-14T21:06:46.684Z,5.81
2023-03-14T21:09:19.341Z,5.81
2023-03-14T21:11:52.591Z,5.71
2023-03-14T21:14:25.307Z,5.78
2023-03-14T21:16:59.202Z,5.84
2023-03-14T21:19:34.246Z,5.86
2023-03-14T21:22:09.201Z,5.84
2023-03-14T21:24:42.080Z,5.89
2023-03-14T21:27:14.809Z,5.93
2023-03-14T21:29:47.703Z,6.04
2023-03-14T21:32:20.800Z,5.99
2023-03-14T21:34:53.690Z,6.06
2023-03-14T21:37:27.995Z,6.12
2023-03-14T21:40:00.624Z,6.13
2023-03-14T21:42:33.191Z,6.08
2023-03-14T21:45:06.892Z,6.00
2023-03-14T21:47:39.996Z,6.01
2023-03-14T21:50:15.124Z,6.21
2023-03-14T21:52:47.831Z,6.29
2023-03-14T21:55:21.397Z,6.40
2023-03-14T21:57:55.862Z,6.24
2023-03-14T22:00:28.812Z,6.24
2023-03-14T22:03:12.815Z,6.38
2023-03-14T22:05:47.240Z,6.34
2023-03-14T22:08:22.802Z,6.25
2023-03-14T22:10:57.413Z,6.37
2023-03-14T22:13:29.900Z,6.50
2023-03-14T22:16:02.434Z,6.51
2023-03-14T22:18:35.198Z,6.44
2023-03-14T22:21:08.225Z,6.40
2023-03-14T22:23:40.876Z,6.53
2023-03-14T22:26:13.868Z,6.42
2023-03-14T22:28:46.671Z,6.40
2023-03-14T22:31:19.567Z,6.47
2023-03-14T22:33:52.113Z,6.42
2023-03-14T22:36:24.694Z,6.35
2023-03-14T22:38:58.443Z,6.34
2023-03-14T22:41:31.353Z,6.48
2023-03-14T22:44:04.556Z,6.41
2023-03-14T22:46:37.041Z,6.31
2023-03-14T22:49:09.988Z,6.48
2023-03-14T22:51:42.852Z,6.51
2023-03-14T22:54:15.777Z,6.60
2023-03-14T22:56:48.467Z,6.55
2023-03-14T22:59:21.284Z,6.63
2023-03-14T23:01:54.759Z,6.73
2023-03-14T23:04:27.230Z,6.73
2023-03-14T23:06:59.726Z,6.69
2023-03-14T23:09:32.499Z,6.66
2023-03-14T23:12:05.637Z,6.63
2023-03-14T23:14:38.649Z,6.72
2023-03-14T23:17:11.500Z,6.77
2023-03-14T23:19:45.588Z,6.69
2023-03-14T23:22:18.130Z,6.64
2023-03-14T23:24:51.960Z,6.63
2023-03-14T23:27:24.423Z,6.64
2023-03-14T23:29:56.995Z,6.81
2023-03-14T23:32:29.781Z,6.62
2023-03-14T23:35:02.146Z,6.49
2023-03-14T23:37:35.109Z,6.71
2023-03-14T23:40:10.294Z,6.73
2023-03-14T23:42:42.929Z,6.75
2023-03-14T23:45:15.763Z,6.67
2023-03-14T23:47:48.912Z,6.82
2023-03-14T23:50:22.554Z,6.78
2023-03-14T23:52:55.322Z,6.90
2023-03-14T23:55:27.938Z,6.97
2023-03-14T23:58:03.048Z,6.62
